Lake Tapawingo, Missouri
Current Conditions -  °F | °C
As of 12:53 AM on Saturday 25 Oct 2014 (Local Time) from KLXT Reporting Station
Clear Clear  
Wind Chill: 63°   Ceiling: Unl
Heat Index: 63°   Visibility: 10mi
Dew Point: 59°   Wind: 5mph
Humidity: 87%   Direction: 290°WNW
Pressure: 30.01"   Gusts: NA
Location:  39.019°N, 94.3003°W
Report Text: KLXT 250553Z AUTO 29004KT 10SM CLR 17/15 A3001 RMK AO2 SLP156 T01720150 10222 20167 402440122 53004
Loading
Personal Weather Stations






























Interactive Weather Map
Tropical Storm Tracking
New forecast layout! Learn more

10-Day Weather Forecast

Advertisements
Track Severe Weather on mobile